sensor_id;sensor_type;location;lat;lon;timestamp;P1;durP1;ratioP1;P2;durP2;ratioP2
32032;SDS011;31720;52.638;9.216;2022-07-23T00:02:13;4.03;;;1.70;;
32032;SDS011;31720;52.638;9.216;2022-07-23T00:05:14;4.32;;;2.15;;
32032;SDS011;31720;52.638;9.216;2022-07-23T00:08:17;2.50;;;1.70;;
32032;SDS011;31720;52.638;9.216;2022-07-23T00:11:18;3.28;;;1.90;;
32032;SDS011;31720;52.638;9.216;2022-07-23T00:14:19;1.98;;;1.55;;
32032;SDS011;31720;52.638;9.216;2022-07-23T00:17:21;2.97;;;2.20;;
32032;SDS011;31720;52.638;9.216;2022-07-23T00:20:22;3.03;;;1.83;;
32032;SDS011;31720;52.638;9.216;2022-07-23T00:23:25;3.03;;;1.70;;
32032;SDS011;31720;52.638;9.216;2022-07-23T00:26:27;4.05;;;2.17;;
32032;SDS011;31720;52.638;9.216;2022-07-23T00:29:28;4.90;;;2.20;;
32032;SDS011;31720;52.638;9.216;2022-07-23T00:32:30;2.72;;;2.03;;
32032;SDS011;31720;52.638;9.216;2022-07-23T00:35:35;3.97;;;1.90;;
32032;SDS011;31720;52.638;9.216;2022-07-23T00:38:38;2.25;;;1.60;;
32032;SDS011;31720;52.638;9.216;2022-07-23T00:41:40;3.33;;;1.80;;
32032;SDS011;31720;52.638;9.216;2022-07-23T00:44:42;2.90;;;1.85;;
32032;SDS011;31720;52.638;9.216;2022-07-23T00:47:43;4.93;;;1.90;;
32032;SDS011;31720;52.638;9.216;2022-07-23T00:50:44;3.25;;;1.80;;
32032;SDS011;31720;52.638;9.216;2022-07-23T00:53:47;3.67;;;1.58;;
32032;SDS011;31720;52.638;9.216;2022-07-23T00:56:49;3.03;;;1.63;;
32032;SDS011;31720;52.638;9.216;2022-07-23T00:59:50;4.15;;;1.85;;
32032;SDS011;31720;52.638;9.216;2022-07-23T01:02:52;2.03;;;1.38;;
32032;SDS011;31720;52.638;9.216;2022-07-23T01:05:53;3.63;;;1.70;;
32032;SDS011;31720;52.638;9.216;2022-07-23T01:08:56;3.22;;;1.30;;
32032;SDS011;31720;52.638;9.216;2022-07-23T01:11:57;2.22;;;1.63;;
32032;SDS011;31720;52.638;9.216;2022-07-23T01:14:59;2.08;;;1.73;;
32032;SDS011;31720;52.638;9.216;2022-07-23T01:18:01;2.00;;;1.48;;
32032;SDS011;31720;52.638;9.216;2022-07-23T01:21:04;3.63;;;2.10;;
32032;SDS011;31720;52.638;9.216;2022-07-23T01:24:08;1.50;;;1.33;;
32032;SDS011;31720;52.638;9.216;2022-07-23T01:27:10;3.05;;;2.33;;
32032;SDS011;31720;52.638;9.216;2022-07-23T01:30:12;2.13;;;1.77;;
32032;SDS011;31720;52.638;9.216;2022-07-23T01:33:14;2.13;;;1.85;;
32032;SDS011;31720;52.638;9.216;2022-07-23T01:36:15;2.85;;;1.70;;
32032;SDS011;31720;52.638;9.216;2022-07-23T01:39:18;2.28;;;1.67;;
32032;SDS011;31720;52.638;9.216;2022-07-23T01:42:19;3.75;;;2.08;;
32032;SDS011;31720;52.638;9.216;2022-07-23T01:45:21;4.78;;;2.05;;
32032;SDS011;31720;52.638;9.216;2022-07-23T01:48:22;3.00;;;1.80;;
32032;SDS011;31720;52.638;9.216;2022-07-23T01:51:23;1.73;;;1.42;;
32032;SDS011;31720;52.638;9.216;2022-07-23T01:54:26;5.35;;;1.92;;
32032;SDS011;31720;52.638;9.216;2022-07-23T01:57:27;2.05;;;1.73;;
32032;SDS011;31720;52.638;9.216;2022-07-23T02:00:29;5.72;;;1.75;;
32032;SDS011;31720;52.638;9.216;2022-07-23T02:03:30;5.68;;;1.92;;
32032;SDS011;31720;52.638;9.216;2022-07-23T02:06:32;2.80;;;2.05;;
32032;SDS011;31720;52.638;9.216;2022-07-23T02:09:34;5.35;;;1.73;;
32032;SDS011;31720;52.638;9.216;2022-07-23T02:12:36;2.92;;;1.50;;
32032;SDS011;31720;52.638;9.216;2022-07-23T02:15:37;3.25;;;2.20;;
32032;SDS011;31720;52.638;9.216;2022-07-23T02:18:38;4.30;;;1.48;;
32032;SDS011;31720;52.638;9.216;2022-07-23T02:21:40;5.68;;;2.15;;
32032;SDS011;31720;52.638;9.216;2022-07-23T02:24:42;2.47;;;2.13;;
32032;SDS011;31720;52.638;9.216;2022-07-23T02:27:44;3.45;;;1.90;;
32032;SDS011;31720;52.638;9.216;2022-07-23T02:30:45;4.55;;;1.80;;
32032;SDS011;31720;52.638;9.216;2022-07-23T02:33:46;2.70;;;1.67;;
32032;SDS011;31720;52.638;9.216;2022-07-23T02:36:48;2.30;;;1.60;;
32032;SDS011;31720;52.638;9.216;2022-07-23T02:39:51;6.40;;;2.38;;
32032;SDS011;31720;52.638;9.216;2022-07-23T02:42:52;2.45;;;1.90;;
32032;SDS011;31720;52.638;9.216;2022-07-23T02:45:54;3.72;;;1.60;;
32032;SDS011;31720;52.638;9.216;2022-07-23T02:48:55;4.88;;;2.22;;
32032;SDS011;31720;52.638;9.216;2022-07-23T02:51:56;3.13;;;1.90;;
32032;SDS011;31720;52.638;9.216;2022-07-23T02:54:59;2.33;;;1.67;;
32032;SDS011;31720;52.638;9.216;2022-07-23T02:58:00;2.83;;;1.65;;
32032;SDS011;31720;52.638;9.216;2022-07-23T03:01:02;3.05;;;1.88;;
32032;SDS011;31720;52.638;9.216;2022-07-23T03:04:03;1.90;;;1.65;;
32032;SDS011;31720;52.638;9.216;2022-07-23T03:07:05;3.00;;;2.28;;
32032;SDS011;31720;52.638;9.216;2022-07-23T03:10:08;5.05;;;2.25;;
32032;SDS011;31720;52.638;9.216;2022-07-23T03:13:09;3.15;;;2.17;;
32032;SDS011;31720;52.638;9.216;2022-07-23T03:16:11;3.40;;;2.00;;
32032;SDS011;31720;52.638;9.216;2022-07-23T03:19:12;3.40;;;1.95;;
32032;SDS011;31720;52.638;9.216;2022-07-23T03:22:13;4.13;;;2.40;;
32032;SDS011;31720;52.638;9.216;2022-07-23T03:25:16;3.70;;;2.72;;
32032;SDS011;31720;52.638;9.216;2022-07-23T03:28:18;3.30;;;2.45;;
32032;SDS011;31720;52.638;9.216;2022-07-23T03:31:19;3.45;;;2.13;;
32032;SDS011;31720;52.638;9.216;2022-07-23T03:34:21;3.00;;;2.20;;
32032;SDS011;31720;52.638;9.216;2022-07-23T03:37:22;4.32;;;1.90;;
32032;SDS011;31720;52.638;9.216;2022-07-23T03:40:25;3.28;;;2.40;;
32032;SDS011;31720;52.638;9.216;2022-07-23T03:43:26;2.97;;;1.95;;
32032;SDS011;31720;52.638;9.216;2022-07-23T03:46:27;3.63;;;2.03;;
32032;SDS011;31720;52.638;9.216;2022-07-23T03:49:28;6.20;;;2.95;;
32032;SDS011;31720;52.638;9.216;2022-07-23T03:52:30;3.72;;;2.45;;
32032;SDS011;31720;52.638;9.216;2022-07-23T03:55:33;2.72;;;1.90;;
32032;SDS011;31720;52.638;9.216;2022-07-23T03:58:34;2.55;;;1.90;;
32032;SDS011;31720;52.638;9.216;2022-07-23T04:01:35;4.20;;;1.73;;
32032;SDS011;31720;52.638;9.216;2022-07-23T04:04:37;2.80;;;2.20;;
32032;SDS011;31720;52.638;9.216;2022-07-23T04:07:38;2.92;;;1.50;;
32032;SDS011;31720;52.638;9.216;2022-07-23T04:10:41;3.28;;;2.10;;
32032;SDS011;31720;52.638;9.216;2022-07-23T04:13:43;4.78;;;2.22;;
32032;SDS011;31720;52.638;9.216;2022-07-23T04:16:44;2.83;;;2.00;;
32032;SDS011;31720;52.638;9.216;2022-07-23T04:19:45;7.97;;;2.38;;
32032;SDS011;31720;52.638;9.216;2022-07-23T04:22:47;7.70;;;3.40;;
32032;SDS011;31720;52.638;9.216;2022-07-23T04:25:49;3.83;;;2.47;;
32032;SDS011;31720;52.638;9.216;2022-07-23T04:28:51;2.90;;;2.33;;
32032;SDS011;31720;52.638;9.216;2022-07-23T04:31:52;3.60;;;2.60;;
32032;SDS011;31720;52.638;9.216;2022-07-23T04:34:53;2.97;;;2.10;;
32032;SDS011;31720;52.638;9.216;2022-07-23T04:37:55;4.80;;;2.53;;
32032;SDS011;31720;52.638;9.216;2022-07-23T04:40:57;2.67;;;2.05;;
32032;SDS011;31720;52.638;9.216;2022-07-23T04:43:58;3.92;;;2.58;;
32032;SDS011;31720;52.638;9.216;2022-07-23T04:47:00;3.53;;;2.75;;
32032;SDS011;31720;52.638;9.216;2022-07-23T04:50:01;5.50;;;2.90;;
32032;SDS011;31720;52.638;9.216;2022-07-23T04:53:03;4.55;;;3.22;;
32032;SDS011;31720;52.638;9.216;2022-07-23T04:56:06;3.17;;;2.70;;
32032;SDS011;31720;52.638;9.216;2022-07-23T04:59:07;4.95;;;3.05;;
32032;SDS011;31720;52.638;9.216;2022-07-23T05:02:09;4.38;;;2.95;;
32032;SDS011;31720;52.638;9.216;2022-07-23T05:05:10;5.60;;;3.17;;
32032;SDS011;31720;52.638;9.216;2022-07-23T05:08:11;4.38;;;2.53;;
32032;SDS011;31720;52.638;9.216;2022-07-23T05:11:14;3.03;;;2.35;;
32032;SDS011;31720;52.638;9.216;2022-07-23T05:14:16;5.97;;;3.42;;
32032;SDS011;31720;52.638;9.216;2022-07-23T05:17:17;9.02;;;2.92;;
32032;SDS011;31720;52.638;9.216;2022-07-23T05:20:18;5.60;;;2.92;;
32032;SDS011;31720;52.638;9.216;2022-07-23T05:23:20;5.15;;;3.03;;
32032;SDS011;31720;52.638;9.216;2022-07-23T05:26:22;3.75;;;2.22;;
32032;SDS011;31720;52.638;9.216;2022-07-23T05:29:24;3.45;;;2.35;;
32032;SDS011;31720;52.638;9.216;2022-07-23T05:32:25;3.35;;;2.10;;
32032;SDS011;31720;52.638;9.216;2022-07-23T05:35:26;4.45;;;2.65;;
32032;SDS011;31720;52.638;9.216;2022-07-23T05:38:28;4.20;;;3.03;;
32032;SDS011;31720;52.638;9.216;2022-07-23T05:41:32;3.88;;;2.28;;
32032;SDS011;31720;52.638;9.216;2022-07-23T05:44:33;3.53;;;2.20;;
32032;SDS011;31720;52.638;9.216;2022-07-23T05:47:41;4.05;;;2.40;;
32032;SDS011;31720;52.638;9.216;2022-07-23T05:50:43;3.33;;;2.83;;
32032;SDS011;31720;52.638;9.216;2022-07-23T05:53:44;4.68;;;2.85;;
32032;SDS011;31720;52.638;9.216;2022-07-23T05:56:47;5.32;;;2.15;;
32032;SDS011;31720;52.638;9.216;2022-07-23T05:59:50;4.10;;;1.77;;
32032;SDS011;31720;52.638;9.216;2022-07-23T06:02:51;6.15;;;2.03;;
32032;SDS011;31720;52.638;9.216;2022-07-23T06:05:53;6.93;;;2.10;;
32032;SDS011;31720;52.638;9.216;2022-07-23T06:08:54;2.42;;;1.70;;
32032;SDS011;31720;52.638;9.216;2022-07-23T06:11:57;2.20;;;1.67;;
32032;SDS011;31720;52.638;9.216;2022-07-23T06:14:58;2.10;;;1.85;;
32032;SDS011;31720;52.638;9.216;2022-07-23T06:18:00;2.80;;;1.63;;
32032;SDS011;31720;52.638;9.216;2022-07-23T06:21:01;1.92;;;1.65;;
32032;SDS011;31720;52.638;9.216;2022-07-23T06:24:02;2.13;;;1.67;;
32032;SDS011;31720;52.638;9.216;2022-07-23T06:27:05;1.83;;;1.20;;
32032;SDS011;31720;52.638;9.216;2022-07-23T06:30:07;3.47;;;1.35;;
32032;SDS011;31720;52.638;9.216;2022-07-23T06:33:10;2.08;;;1.60;;
32032;SDS011;31720;52.638;9.216;2022-07-23T06:36:12;6.43;;;1.70;;
32032;SDS011;31720;52.638;9.216;2022-07-23T06:39:13;7.47;;;1.60;;
32032;SDS011;31720;52.638;9.216;2022-07-23T06:42:16;2.35;;;1.42;;
32032;SDS011;31720;52.638;9.216;2022-07-23T06:45:17;8.73;;;2.05;;
32032;SDS011;31720;52.638;9.216;2022-07-23T06:48:19;1.92;;;1.55;;
32032;SDS011;31720;52.638;9.216;2022-07-23T06:51:20;3.90;;;1.60;;
32032;SDS011;31720;52.638;9.216;2022-07-23T06:54:21;2.45;;;2.03;;
32032;SDS011;31720;52.638;9.216;2022-07-23T06:57:24;3.45;;;1.75;;
32032;SDS011;31720;52.638;9.216;2022-07-23T07:00:26;3.00;;;1.85;;
32032;SDS011;31720;52.638;9.216;2022-07-23T07:03:27;4.15;;;2.00;;
32032;SDS011;31720;52.638;9.216;2022-07-23T07:06:29;1.45;;;1.30;;
32032;SDS011;31720;52.638;9.216;2022-07-23T07:09:31;2.85;;;1.83;;
32032;SDS011;31720;52.638;9.216;2022-07-23T07:12:33;5.50;;;1.92;;
32032;SDS011;31720;52.638;9.216;2022-07-23T07:15:35;8.50;;;1.88;;
32032;SDS011;31720;52.638;9.216;2022-07-23T07:18:36;4.78;;;1.45;;
32032;SDS011;31720;52.638;9.216;2022-07-23T07:21:37;4.15;;;1.58;;
32032;SDS011;31720;52.638;9.216;2022-07-23T07:24:39;1.95;;;1.45;;
32032;SDS011;31720;52.638;9.216;2022-07-23T07:27:42;5.70;;;1.33;;
32032;SDS011;31720;52.638;9.216;2022-07-23T07:30:44;1.75;;;1.20;;
32032;SDS011;31720;52.638;9.216;2022-07-23T07:33:45;1.85;;;1.42;;
32032;SDS011;31720;52.638;9.216;2022-07-23T07:36:47;1.50;;;1.40;;
32032;SDS011;31720;52.638;9.216;2022-07-23T07:39:49;1.27;;;1.15;;
32032;SDS011;31720;52.638;9.216;2022-07-23T07:42:52;2.38;;;1.60;;
32032;SDS011;31720;52.638;9.216;2022-07-23T07:45:56;3.75;;;1.35;;
32032;SDS011;31720;52.638;9.216;2022-07-23T07:48:59;1.33;;;1.23;;
32032;SDS011;31720;52.638;9.216;2022-07-23T07:52:00;1.63;;;1.20;;
32032;SDS011;31720;52.638;9.216;2022-07-23T07:55:01;1.98;;;1.30;;
32032;SDS011;31720;52.638;9.216;2022-07-23T07:58:06;1.70;;;1.20;;
32032;SDS011;31720;52.638;9.216;2022-07-23T08:01:07;3.50;;;0.98;;
32032;SDS011;31720;52.638;9.216;2022-07-23T08:04:08;0.82;;;0.80;;
32032;SDS011;31720;52.638;9.216;2022-07-23T08:07:10;1.83;;;1.00;;
32032;SDS011;31720;52.638;9.216;2022-07-23T08:10:11;1.58;;;1.02;;
32032;SDS011;31720;52.638;9.216;2022-07-23T08:13:14;3.20;;;1.08;;
32032;SDS011;31720;52.638;9.216;2022-07-23T08:16:16;1.88;;;0.90;;
32032;SDS011;31720;52.638;9.216;2022-07-23T08:19:18;4.43;;;0.98;;
32032;SDS011;31720;52.638;9.216;2022-07-23T08:22:19;3.25;;;0.90;;
32032;SDS011;31720;52.638;9.216;2022-07-23T08:25:21;1.58;;;0.80;;
32032;SDS011;31720;52.638;9.216;2022-07-23T08:28:24;1.27;;;0.90;;
32032;SDS011;31720;52.638;9.216;2022-07-23T08:31:26;3.40;;;0.88;;
32032;SDS011;31720;52.638;9.216;2022-07-23T08:34:27;1.70;;;1.02;;
32032;SDS011;31720;52.638;9.216;2022-07-23T08:37:28;1.58;;;0.90;;
32032;SDS011;31720;52.638;9.216;2022-07-23T08:40:30;1.65;;;0.65;;
32032;SDS011;31720;52.638;9.216;2022-07-23T08:43:35;0.60;;;0.60;;
32032;SDS011;31720;52.638;9.216;2022-07-23T08:46:36;2.28;;;0.85;;
32032;SDS011;31720;52.638;9.216;2022-07-23T08:49:39;1.25;;;1.15;;
32032;SDS011;31720;52.638;9.216;2022-07-23T08:52:42;4.55;;;1.05;;
32032;SDS011;31720;52.638;9.216;2022-07-23T08:55:44;6.05;;;0.70;;
32032;SDS011;31720;52.638;9.216;2022-07-23T08:58:48;0.85;;;0.77;;
32032;SDS011;31720;52.638;9.216;2022-07-23T09:01:49;0.68;;;0.63;;
32032;SDS011;31720;52.638;9.216;2022-07-23T09:04:50;2.03;;;0.65;;
32032;SDS011;31720;52.638;9.216;2022-07-23T09:08:03;1.35;;;0.60;;
32032;SDS011;31720;52.638;9.216;2022-07-23T09:11:06;0.95;;;0.75;;
32032;SDS011;31720;52.638;9.216;2022-07-23T09:14:10;0.60;;;0.60;;
32032;SDS011;31720;52.638;9.216;2022-07-23T09:17:12;1.48;;;0.95;;
32032;SDS011;31720;52.638;9.216;2022-07-23T09:20:16;1.10;;;0.50;;
32032;SDS011;31720;52.638;9.216;2022-07-23T09:23:18;0.88;;;0.75;;
32032;SDS011;31720;52.638;9.216;2022-07-23T09:26:21;0.98;;;0.65;;
32032;SDS011;31720;52.638;9.216;2022-07-23T09:29:31;1.25;;;0.80;;
32032;SDS011;31720;52.638;9.216;2022-07-23T09:32:32;0.70;;;0.70;;
32032;SDS011;31720;52.638;9.216;2022-07-23T09:35:43;2.05;;;0.80;;
32032;SDS011;31720;52.638;9.216;2022-07-23T09:38:49;2.63;;;0.70;;
32032;SDS011;31720;52.638;9.216;2022-07-23T09:41:51;0.80;;;0.80;;
32032;SDS011;31720;52.638;9.216;2022-07-23T09:44:54;0.82;;;0.75;;
32032;SDS011;31720;52.638;9.216;2022-07-23T09:48:09;0.88;;;0.65;;
32032;SDS011;31720;52.638;9.216;2022-07-23T09:51:11;0.40;;;0.40;;
32032;SDS011;31720;52.638;9.216;2022-07-23T09:54:23;0.40;;;0.40;;
32032;SDS011;31720;52.638;9.216;2022-07-23T09:57:30;4.38;;;0.90;;
32032;SDS011;31720;52.638;9.216;2022-07-23T10:00:34;0.95;;;0.43;;
32032;SDS011;31720;52.638;9.216;2022-07-23T10:03:36;5.38;;;0.60;;
32032;SDS011;31720;52.638;9.216;2022-07-23T10:06:39;0.35;;;0.35;;
32032;SDS011;31720;52.638;9.216;2022-07-23T10:09:41;0.63;;;0.50;;
32032;SDS011;31720;52.638;9.216;2022-07-23T10:12:43;1.50;;;0.35;;
32032;SDS011;31720;52.638;9.216;2022-07-23T10:16:09;0.40;;;0.40;;
32032;SDS011;31720;52.638;9.216;2022-07-23T10:19:10;0.30;;;0.30;;
32032;SDS011;31720;52.638;9.216;2022-07-23T10:22:13;0.47;;;0.47;;
32032;SDS011;31720;52.638;9.216;2022-07-23T10:25:18;1.48;;;0.50;;
32032;SDS011;31720;52.638;9.216;2022-07-23T10:28:33;0.95;;;0.75;;
32032;SDS011;31720;52.638;9.216;2022-07-23T10:31:52;0.45;;;0.40;;
32032;SDS011;31720;52.638;9.216;2022-07-23T10:35:03;0.50;;;0.50;;
32032;SDS011;31720;52.638;9.216;2022-07-23T10:38:12;0.40;;;0.38;;
32032;SDS011;31720;52.638;9.216;2022-07-23T10:41:29;0.98;;;0.57;;
32032;SDS011;31720;52.638;9.216;2022-07-23T10:44:37;0.30;;;0.30;;
32032;SDS011;31720;52.638;9.216;2022-07-23T10:47:42;1.58;;;0.50;;
32032;SDS011;31720;52.638;9.216;2022-07-23T10:50:43;1.42;;;0.60;;
32032;SDS011;31720;52.638;9.216;2022-07-23T10:54:06;0.35;;;0.35;;
32032;SDS011;31720;52.638;9.216;2022-07-23T10:57:22;0.70;;;0.60;;
32032;SDS011;31720;52.638;9.216;2022-07-23T11:00:25;0.30;;;0.30;;
32032;SDS011;31720;52.638;9.216;2022-07-23T11:03:31;1.45;;;0.57;;
32032;SDS011;31720;52.638;9.216;2022-07-23T11:10:12;0.40;;;0.40;;
32032;SDS011;31720;52.638;9.216;2022-07-23T11:13:46;0.40;;;0.40;;
32032;SDS011;31720;52.638;9.216;2022-07-23T11:16:48;0.40;;;0.38;;
32032;SDS011;31720;52.638;9.216;2022-07-23T11:20:20;1.05;;;0.30;;
32032;SDS011;31720;52.638;9.216;2022-07-23T11:23:22;0.73;;;0.50;;
32032;SDS011;31720;52.638;9.216;2022-07-23T11:29:47;0.28;;;0.28;;
32032;SDS011;31720;52.638;9.216;2022-07-23T11:32:52;0.57;;;0.25;;
32032;SDS011;31720;52.638;9.216;2022-07-23T11:36:03;1.17;;;0.50;;
32032;SDS011;31720;52.638;9.216;2022-07-23T11:39:04;0.57;;;0.50;;
32032;SDS011;31720;52.638;9.216;2022-07-23T11:42:07;0.70;;;0.25;;
32032;SDS011;31720;52.638;9.216;2022-07-23T11:45:09;0.85;;;0.30;;
32032;SDS011;31720;52.638;9.216;2022-07-23T11:48:15;0.43;;;0.43;;
32032;SDS011;31720;52.638;9.216;2022-07-23T11:51:25;0.50;;;0.28;;
32032;SDS011;31720;52.638;9.216;2022-07-23T11:57:29;0.52;;;0.30;;
32032;SDS011;31720;52.638;9.216;2022-07-23T12:00:31;0.30;;;0.30;;
32032;SDS011;31720;52.638;9.216;2022-07-23T12:03:33;0.60;;;0.30;;
32032;SDS011;31720;52.638;9.216;2022-07-23T12:06:38;1.95;;;0.43;;
32032;SDS011;31720;52.638;9.216;2022-07-23T12:09:43;0.20;;;0.20;;
32032;SDS011;31720;52.638;9.216;2022-07-23T12:12:45;0.82;;;0.50;;
32032;SDS011;31720;52.638;9.216;2022-07-23T12:15:50;1.58;;;0.40;;
32032;SDS011;31720;52.638;9.216;2022-07-23T12:18:52;0.30;;;0.30;;
32032;SDS011;31720;52.638;9.216;2022-07-23T12:21:57;0.38;;;0.38;;
32032;SDS011;31720;52.638;9.216;2022-07-23T12:24:58;0.30;;;0.30;;
32032;SDS011;31720;52.638;9.216;2022-07-23T12:28:03;1.85;;;0.40;;
32032;SDS011;31720;52.638;9.216;2022-07-23T12:31:07;0.65;;;0.28;;
32032;SDS011;31720;52.638;9.216;2022-07-23T12:34:13;0.80;;;0.30;;
32032;SDS011;31720;52.638;9.216;2022-07-23T12:37:29;2.65;;;0.50;;
32032;SDS011;31720;52.638;9.216;2022-07-23T12:40:33;0.30;;;0.30;;
32032;SDS011;31720;52.638;9.216;2022-07-23T12:43:37;0.70;;;0.40;;
32032;SDS011;31720;52.638;9.216;2022-07-23T12:46:40;1.70;;;0.47;;
32032;SDS011;31720;52.638;9.216;2022-07-23T12:49:41;0.52;;;0.50;;
32032;SDS011;31720;52.638;9.216;2022-07-23T12:52:44;0.90;;;0.40;;
32032;SDS011;31720;52.638;9.216;2022-07-23T12:55:45;0.40;;;0.40;;
32032;SDS011;31720;52.638;9.216;2022-07-23T12:58:48;0.30;;;0.30;;
32032;SDS011;31720;52.638;9.216;2022-07-23T13:01:53;0.90;;;0.60;;
32032;SDS011;31720;52.638;9.216;2022-07-23T13:04:58;0.40;;;0.40;;
32032;SDS011;31720;52.638;9.216;2022-07-23T13:08:00;1.75;;;0.35;;
32032;SDS011;31720;52.638;9.216;2022-07-23T13:11:02;0.57;;;0.50;;
32032;SDS011;31720;52.638;9.216;2022-07-23T13:14:05;0.30;;;0.30;;
32032;SDS011;31720;52.638;9.216;2022-07-23T13:17:06;5.78;;;1.40;;
32032;SDS011;31720;52.638;9.216;2022-07-23T13:20:08;0.40;;;0.40;;
32032;SDS011;31720;52.638;9.216;2022-07-23T13:23:11;0.35;;;0.32;;
32032;SDS011;31720;52.638;9.216;2022-07-23T13:26:13;0.82;;;0.40;;
32032;SDS011;31720;52.638;9.216;2022-07-23T13:29:14;0.63;;;0.20;;
32032;SDS011;31720;52.638;9.216;2022-07-23T13:32:16;0.35;;;0.35;;
32032;SDS011;31720;52.638;9.216;2022-07-23T13:35:17;0.40;;;0.30;;
32032;SDS011;31720;52.638;9.216;2022-07-23T13:38:20;0.52;;;0.20;;
32032;SDS011;31720;52.638;9.216;2022-07-23T13:41:22;0.60;;;0.32;;
32032;SDS011;31720;52.638;9.216;2022-07-23T13:44:23;1.60;;;0.40;;
32032;SDS011;31720;52.638;9.216;2022-07-23T13:47:25;0.20;;;0.20;;
32032;SDS011;31720;52.638;9.216;2022-07-23T13:50:26;1.00;;;0.22;;
32032;SDS011;31720;52.638;9.216;2022-07-23T13:53:29;0.47;;;0.30;;
32032;SDS011;31720;52.638;9.216;2022-07-23T13:56:30;0.32;;;0.32;;
32032;SDS011;31720;52.638;9.216;2022-07-23T13:59:32;2.97;;;0.45;;
32032;SDS011;31720;52.638;9.216;2022-07-23T14:02:34;0.47;;;0.30;;
32032;SDS011;31720;52.638;9.216;2022-07-23T14:05:36;0.13;;;0.13;;
32032;SDS011;31720;52.638;9.216;2022-07-23T14:08:39;0.22;;;0.22;;
32032;SDS011;31720;52.638;9.216;2022-07-23T14:11:40;0.47;;;0.22;;
32032;SDS011;31720;52.638;9.216;2022-07-23T14:14:42;0.73;;;0.45;;
32032;SDS011;31720;52.638;9.216;2022-07-23T14:17:44;0.30;;;0.30;;
32032;SDS011;31720;52.638;9.216;2022-07-23T14:20:47;8.82;;;1.75;;
32032;SDS011;31720;52.638;9.216;2022-07-23T14:23:49;0.30;;;0.28;;
32032;SDS011;31720;52.638;9.216;2022-07-23T14:26:51;0.38;;;0.30;;
32032;SDS011;31720;52.638;9.216;2022-07-23T14:29:52;0.30;;;0.30;;
32032;SDS011;31720;52.638;9.216;2022-07-23T14:32:53;0.25;;;0.25;;
32032;SDS011;31720;52.638;9.216;2022-07-23T14:35:55;0.20;;;0.20;;
32032;SDS011;31720;52.638;9.216;2022-07-23T14:38:57;2.38;;;0.30;;
32032;SDS011;31720;52.638;9.216;2022-07-23T14:41:59;0.20;;;0.20;;
32032;SDS011;31720;52.638;9.216;2022-07-23T14:45:00;0.50;;;0.32;;
32032;SDS011;31720;52.638;9.216;2022-07-23T14:48:02;0.30;;;0.30;;
32032;SDS011;31720;52.638;9.216;2022-07-23T14:51:03;0.98;;;0.22;;
32032;SDS011;31720;52.638;9.216;2022-07-23T14:54:06;0.30;;;0.30;;
32032;SDS011;31720;52.638;9.216;2022-07-23T14:57:07;2.08;;;0.50;;
32032;SDS011;31720;52.638;9.216;2022-07-23T15:00:09;1.15;;;0.60;;
32032;SDS011;31720;52.638;9.216;2022-07-23T15:03:11;1.00;;;0.50;;
32032;SDS011;31720;52.638;9.216;2022-07-23T15:06:12;1.40;;;0.22;;
32032;SDS011;31720;52.638;9.216;2022-07-23T15:09:15;2.45;;;0.22;;
32032;SDS011;31720;52.638;9.216;2022-07-23T15:12:16;0.20;;;0.20;;
32032;SDS011;31720;52.638;9.216;2022-07-23T15:15:18;0.20;;;0.20;;
32032;SDS011;31720;52.638;9.216;2022-07-23T15:18:19;3.03;;;0.20;;
32032;SDS011;31720;52.638;9.216;2022-07-23T15:21:21;1.08;;;0.20;;
32032;SDS011;31720;52.638;9.216;2022-07-23T15:24:23;0.20;;;0.20;;
32032;SDS011;31720;52.638;9.216;2022-07-23T15:27:25;0.20;;;0.20;;
32032;SDS011;31720;52.638;9.216;2022-07-23T15:30:27;0.50;;;0.25;;
32032;SDS011;31720;52.638;9.216;2022-07-23T15:33:29;0.30;;;0.28;;
32032;SDS011;31720;52.638;9.216;2022-07-23T15:36:30;0.25;;;0.25;;
32032;SDS011;31720;52.638;9.216;2022-07-23T15:39:33;0.08;;;0.08;;
32032;SDS011;31720;52.638;9.216;2022-07-23T15:42:34;0.40;;;0.40;;
32032;SDS011;31720;52.638;9.216;2022-07-23T15:45:36;0.38;;;0.30;;
32032;SDS011;31720;52.638;9.216;2022-07-23T15:48:37;0.77;;;0.40;;
32032;SDS011;31720;52.638;9.216;2022-07-23T15:51:40;0.88;;;0.40;;
32032;SDS011;31720;52.638;9.216;2022-07-23T15:54:42;0.30;;;0.20;;
32032;SDS011;31720;52.638;9.216;2022-07-23T15:57:44;0.20;;;0.20;;
32032;SDS011;31720;52.638;9.216;2022-07-23T16:00:45;3.40;;;0.60;;
32032;SDS011;31720;52.638;9.216;2022-07-23T16:03:47;0.40;;;0.40;;
32032;SDS011;31720;52.638;9.216;2022-07-23T16:06:48;0.32;;;0.32;;
32032;SDS011;31720;52.638;9.216;2022-07-23T16:09:51;0.40;;;0.40;;
32032;SDS011;31720;52.638;9.216;2022-07-23T16:12:52;0.35;;;0.35;;
32032;SDS011;31720;52.638;9.216;2022-07-23T16:15:53;1.38;;;0.30;;
32032;SDS011;31720;52.638;9.216;2022-07-23T16:18:55;0.40;;;0.40;;
32032;SDS011;31720;52.638;9.216;2022-07-23T16:21:57;0.20;;;0.20;;
32032;SDS011;31720;52.638;9.216;2022-07-23T16:25:00;0.20;;;0.20;;
32032;SDS011;31720;52.638;9.216;2022-07-23T16:28:01;1.70;;;0.40;;
32032;SDS011;31720;52.638;9.216;2022-07-23T16:31:03;1.08;;;0.40;;
32032;SDS011;31720;52.638;9.216;2022-07-23T16:34:04;0.40;;;0.40;;
32032;SDS011;31720;52.638;9.216;2022-07-23T16:37:07;0.77;;;0.40;;
32032;SDS011;31720;52.638;9.216;2022-07-23T16:40:11;0.30;;;0.30;;
32032;SDS011;31720;52.638;9.216;2022-07-23T16:43:12;0.28;;;0.28;;
32032;SDS011;31720;52.638;9.216;2022-07-23T16:46:14;0.25;;;0.25;;
32032;SDS011;31720;52.638;9.216;2022-07-23T16:49:15;0.43;;;0.30;;
32032;SDS011;31720;52.638;9.216;2022-07-23T16:52:17;0.68;;;0.47;;
32032;SDS011;31720;52.638;9.216;2022-07-23T16:55:19;0.40;;;0.40;;
32032;SDS011;31720;52.638;9.216;2022-07-23T16:58:21;0.22;;;0.22;;
32032;SDS011;31720;52.638;9.216;2022-07-23T17:01:22;0.30;;;0.30;;
32032;SDS011;31720;52.638;9.216;2022-07-23T17:04:24;0.60;;;0.30;;
32032;SDS011;31720;52.638;9.216;2022-07-23T17:07:25;0.40;;;0.40;;
32032;SDS011;31720;52.638;9.216;2022-07-23T17:10:28;0.30;;;0.30;;
32032;SDS011;31720;52.638;9.216;2022-07-23T17:13:29;0.80;;;0.50;;
32032;SDS011;31720;52.638;9.216;2022-07-23T17:16:31;0.45;;;0.40;;
32032;SDS011;31720;52.638;9.216;2022-07-23T17:19:32;0.55;;;0.43;;
32032;SDS011;31720;52.638;9.216;2022-07-23T17:22:34;0.90;;;0.70;;
32032;SDS011;31720;52.638;9.216;2022-07-23T17:25:37;1.48;;;0.40;;
32032;SDS011;31720;52.638;9.216;2022-07-23T17:28:38;0.30;;;0.30;;
32032;SDS011;31720;52.638;9.216;2022-07-23T17:31:40;0.52;;;0.43;;
32032;SDS011;31720;52.638;9.216;2022-07-23T17:34:41;0.57;;;0.47;;
32032;SDS011;31720;52.638;9.216;2022-07-23T17:37:43;0.43;;;0.43;;
32032;SDS011;31720;52.638;9.216;2022-07-23T17:40:45;0.43;;;0.43;;
32032;SDS011;31720;52.638;9.216;2022-07-23T17:43:47;0.45;;;0.45;;
32032;SDS011;31720;52.638;9.216;2022-07-23T17:46:48;0.30;;;0.30;;
32032;SDS011;31720;52.638;9.216;2022-07-23T17:49:49;3.85;;;0.65;;
32032;SDS011;31720;52.638;9.216;2022-07-23T17:52:52;0.40;;;0.40;;
32032;SDS011;31720;52.638;9.216;2022-07-23T17:55:55;0.32;;;0.32;;
32032;SDS011;31720;52.638;9.216;2022-07-23T17:58:59;0.50;;;0.50;;
32032;SDS011;31720;52.638;9.216;2022-07-23T18:02:00;1.02;;;0.65;;
32032;SDS011;31720;52.638;9.216;2022-07-23T18:05:02;1.35;;;0.40;;
32032;SDS011;31720;52.638;9.216;2022-07-23T18:08:04;3.20;;;0.47;;
32032;SDS011;31720;52.638;9.216;2022-07-23T18:11:07;0.50;;;0.45;;
32032;SDS011;31720;52.638;9.216;2022-07-23T18:14:09;0.95;;;0.40;;
32032;SDS011;31720;52.638;9.216;2022-07-23T18:17:11;0.93;;;0.60;;
32032;SDS011;31720;52.638;9.216;2022-07-23T18:20:12;1.85;;;0.70;;
32032;SDS011;31720;52.638;9.216;2022-07-23T18:23:13;0.40;;;0.40;;
32032;SDS011;31720;52.638;9.216;2022-07-23T18:26:16;0.68;;;0.50;;
32032;SDS011;31720;52.638;9.216;2022-07-23T18:29:17;0.60;;;0.60;;
32032;SDS011;31720;52.638;9.216;2022-07-23T18:32:19;0.95;;;0.60;;